sensor_id;sensor_type;location;lat;lon;timestamp;temperature;humidity
54518;DHT22;40423;53.176;6.002;2023-01-13T00:03:33;9.00;99.90
54518;DHT22;40423;53.176;6.002;2023-01-13T00:05:59;9.00;99.90
54518;DHT22;40423;53.176;6.002;2023-01-13T00:08:25;9.00;99.90
54518;DHT22;40423;53.176;6.002;2023-01-13T00:10:51;9.00;99.90
54518;DHT22;40423;53.176;6.002;2023-01-13T00:13:16;8.90;99.90
54518;DHT22;40423;53.176;6.002;2023-01-13T00:16:03;8.90;99.90
54518;DHT22;40423;53.176;6.002;2023-01-13T00:18:29;8.90;99.90
54518;DHT22;40423;53.176;6.002;2023-01-13T00:21:05;8.80;99.90
54518;DHT22;40423;53.176;6.002;2023-01-13T00:23:33;8.80;99.90
54518;DHT22;40423;53.176;6.002;2023-01-13T00:26:01;8.80;99.90
54518;DHT22;40423;53.176;6.002;2023-01-13T00:28:28;8.80;99.90
54518;DHT22;40423;53.176;6.002;2023-01-13T00:30:54;8.80;99.90
54518;DHT22;40423;53.176;6.002;2023-01-13T00:35:58;8.80;99.90
54518;DHT22;40423;53.176;6.002;2023-01-13T00:38:24;8.70;99.90
54518;DHT22;40423;53.176;6.002;2023-01-13T00:41:20;8.70;99.90
54518;DHT22;40423;53.176;6.002;2023-01-13T00:43:46;8.70;99.90
54518;DHT22;40423;53.176;6.002;2023-01-13T00:46:14;8.70;99.90
54518;DHT22;40423;53.176;6.002;2023-01-13T00:48:40;8.70;99.90
54518;DHT22;40423;53.176;6.002;2023-01-13T00:51:13;8.70;99.90
54518;DHT22;40423;53.176;6.002;2023-01-13T00:53:45;8.70;99.90
54518;DHT22;40423;53.176;6.002;2023-01-13T00:56:19;8.60;99.90
54518;DHT22;40423;53.176;6.002;2023-01-13T00:58:46;8.60;99.90
54518;DHT22;40423;53.176;6.002;2023-01-13T01:01:15;8.60;99.90
54518;DHT22;40423;53.176;6.002;2023-01-13T01:03:41;8.60;99.90
54518;DHT22;40423;53.176;6.002;2023-01-13T01:06:11;8.60;99.90
54518;DHT22;40423;53.176;6.002;2023-01-13T01:08:37;8.50;99.90
54518;DHT22;40423;53.176;6.002;2023-01-13T01:11:08;8.50;99.90
54518;DHT22;40423;53.176;6.002;2023-01-13T01:13:35;8.50;99.90
54518;DHT22;40423;53.176;6.002;2023-01-13T01:16:09;8.50;99.90
54518;DHT22;40423;53.176;6.002;2023-01-13T01:18:37;8.50;99.90
54518;DHT22;40423;53.176;6.002;2023-01-13T01:21:04;8.30;99.90
54518;DHT22;40423;53.176;6.002;2023-01-13T01:23:31;8.40;99.90
54518;DHT22;40423;53.176;6.002;2023-01-13T01:26:15;8.40;99.90
54518;DHT22;40423;53.176;6.002;2023-01-13T01:28:42;8.40;99.90
54518;DHT22;40423;53.176;6.002;2023-01-13T01:31:20;8.50;99.90
54518;DHT22;40423;53.176;6.002;2023-01-13T01:33:46;8.40;99.90
54518;DHT22;40423;53.176;6.002;2023-01-13T01:36:14;8.40;99.90
54518;DHT22;40423;53.176;6.002;2023-01-13T01:38:40;8.40;99.90
54518;DHT22;40423;53.176;6.002;2023-01-13T01:41:06;8.40;99.90
54518;DHT22;40423;53.176;6.002;2023-01-13T01:46:43;8.40;99.90
54518;DHT22;40423;53.176;6.002;2023-01-13T01:49:25;8.40;99.90
54518;DHT22;40423;53.176;6.002;2023-01-13T01:52:03;8.40;99.90
54518;DHT22;40423;53.176;6.002;2023-01-13T01:57:03;8.40;99.90
54518;DHT22;40423;53.176;6.002;2023-01-13T01:59:30;8.40;99.90
54518;DHT22;40423;53.176;6.002;2023-01-13T02:01:56;8.40;99.90
54518;DHT22;40423;53.176;6.002;2023-01-13T02:04:26;8.40;99.90
54518;DHT22;40423;53.176;6.002;2023-01-13T02:06:54;8.40;99.90
54518;DHT22;40423;53.176;6.002;2023-01-13T02:09:21;8.40;99.90
54518;DHT22;40423;53.176;6.002;2023-01-13T02:11:48;8.40;99.90
54518;DHT22;40423;53.176;6.002;2023-01-13T02:14:33;8.50;99.90
54518;DHT22;40423;53.176;6.002;2023-01-13T02:17:03;8.50;99.90
54518;DHT22;40423;53.176;6.002;2023-01-13T02:28:18;8.50;99.90
54518;DHT22;40423;53.176;6.002;2023-01-13T02:30:55;8.50;99.90
54518;DHT22;40423;53.176;6.002;2023-01-13T02:33:51;8.50;99.90
54518;DHT22;40423;53.176;6.002;2023-01-13T02:36:54;8.50;99.90
54518;DHT22;40423;53.176;6.002;2023-01-13T02:42:04;8.40;99.90
54518;DHT22;40423;53.176;6.002;2023-01-13T02:45:29;8.50;99.90
54518;DHT22;40423;53.176;6.002;2023-01-13T02:47:53;8.50;99.90
54518;DHT22;40423;53.176;6.002;2023-01-13T02:50:31;8.50;99.90
54518;DHT22;40423;53.176;6.002;2023-01-13T02:53:05;8.50;99.90
54518;DHT22;40423;53.176;6.002;2023-01-13T02:55:42;8.50;99.90
54518;DHT22;40423;53.176;6.002;2023-01-13T02:58:14;8.50;99.90
54518;DHT22;40423;53.176;6.002;2023-01-13T03:00:45;8.50;99.90
54518;DHT22;40423;53.176;6.002;2023-01-13T03:03:12;8.50;99.90
54518;DHT22;40423;53.176;6.002;2023-01-13T03:05:39;8.50;99.90
54518;DHT22;40423;53.176;6.002;2023-01-13T03:10:47;8.60;99.90
54518;DHT22;40423;53.176;6.002;2023-01-13T03:21:26;8.60;99.90
54518;DHT22;40423;53.176;6.002;2023-01-13T03:31:35;8.70;99.90
54518;DHT22;40423;53.176;6.002;2023-01-13T03:34:17;8.70;99.90
54518;DHT22;40423;53.176;6.002;2023-01-13T03:36:48;8.70;99.90
54518;DHT22;40423;53.176;6.002;2023-01-13T03:39:19;8.70;99.90
54518;DHT22;40423;53.176;6.002;2023-01-13T03:41:54;8.60;99.90
54518;DHT22;40423;53.176;6.002;2023-01-13T03:44:41;8.60;99.90
54518;DHT22;40423;53.176;6.002;2023-01-13T03:47:28;8.70;99.90
54518;DHT22;40423;53.176;6.002;2023-01-13T03:50:05;8.70;99.90
54518;DHT22;40423;53.176;6.002;2023-01-13T03:52:36;8.60;99.90
54518;DHT22;40423;53.176;6.002;2023-01-13T03:55:11;8.60;99.90
54518;DHT22;40423;53.176;6.002;2023-01-13T03:58:00;8.60;99.90
54518;DHT22;40423;53.176;6.002;2023-01-13T04:00:35;8.60;99.90
54518;DHT22;40423;53.176;6.002;2023-01-13T04:03:11;8.50;99.90
54518;DHT22;40423;53.176;6.002;2023-01-13T04:05:42;8.50;99.90
54518;DHT22;40423;53.176;6.002;2023-01-13T04:08:27;8.60;99.90
54518;DHT22;40423;53.176;6.002;2023-01-13T04:11:07;8.50;99.90
54518;DHT22;40423;53.176;6.002;2023-01-13T04:13:37;8.60;99.90
54518;DHT22;40423;53.176;6.002;2023-01-13T04:16:05;8.60;99.90
54518;DHT22;40423;53.176;6.002;2023-01-13T04:18:31;8.50;99.90
54518;DHT22;40423;53.176;6.002;2023-01-13T04:20:59;8.60;99.90
54518;DHT22;40423;53.176;6.002;2023-01-13T04:23:26;8.60;99.90
54518;DHT22;40423;53.176;6.002;2023-01-13T04:25:55;8.60;99.90
54518;DHT22;40423;53.176;6.002;2023-01-13T04:28:22;8.70;99.90
54518;DHT22;40423;53.176;6.002;2023-01-13T04:30:48;8.70;99.90
54518;DHT22;40423;53.176;6.002;2023-01-13T04:33:14;8.70;99.90
54518;DHT22;40423;53.176;6.002;2023-01-13T04:35:41;8.70;99.90
54518;DHT22;40423;53.176;6.002;2023-01-13T04:38:13;8.70;99.90
54518;DHT22;40423;53.176;6.002;2023-01-13T04:40:41;8.80;99.90
54518;DHT22;40423;53.176;6.002;2023-01-13T04:43:07;8.80;99.90
54518;DHT22;40423;53.176;6.002;2023-01-13T04:45:33;8.80;99.90
54518;DHT22;40423;53.176;6.002;2023-01-13T04:47:59;8.80;99.90
54518;DHT22;40423;53.176;6.002;2023-01-13T04:50:25;8.80;99.90
54518;DHT22;40423;53.176;6.002;2023-01-13T04:52:54;8.80;99.90
54518;DHT22;40423;53.176;6.002;2023-01-13T04:55:22;8.80;99.90
54518;DHT22;40423;53.176;6.002;2023-01-13T04:57:48;8.80;99.90
54518;DHT22;40423;53.176;6.002;2023-01-13T05:00:15;8.80;99.90
54518;DHT22;40423;53.176;6.002;2023-01-13T05:02:42;8.80;99.90
54518;DHT22;40423;53.176;6.002;2023-01-13T05:05:08;8.80;99.90
54518;DHT22;40423;53.176;6.002;2023-01-13T05:07:34;8.70;99.90
54518;DHT22;40423;53.176;6.002;2023-01-13T05:09:59;8.70;99.90
54518;DHT22;40423;53.176;6.002;2023-01-13T05:12:25;8.70;99.90
54518;DHT22;40423;53.176;6.002;2023-01-13T05:15:13;8.80;99.90
54518;DHT22;40423;53.176;6.002;2023-01-13T05:18:02;8.80;99.90
54518;DHT22;40423;53.176;6.002;2023-01-13T05:20:28;8.80;99.90
54518;DHT22;40423;53.176;6.002;2023-01-13T05:22:53;8.80;99.90
54518;DHT22;40423;53.176;6.002;2023-01-13T05:25:39;8.80;99.90
54518;DHT22;40423;53.176;6.002;2023-01-13T05:28:06;8.80;99.90
54518;DHT22;40423;53.176;6.002;2023-01-13T05:30:36;8.80;99.90
54518;DHT22;40423;53.176;6.002;2023-01-13T05:33:02;8.80;99.90
54518;DHT22;40423;53.176;6.002;2023-01-13T05:35:28;8.80;99.90
54518;DHT22;40423;53.176;6.002;2023-01-13T05:37:54;8.80;99.90
54518;DHT22;40423;53.176;6.002;2023-01-13T05:40:20;8.80;99.90
54518;DHT22;40423;53.176;6.002;2023-01-13T05:43:09;8.80;99.90
54518;DHT22;40423;53.176;6.002;2023-01-13T05:48:14;8.80;99.90
54518;DHT22;40423;53.176;6.002;2023-01-13T05:50:39;8.80;99.90
54518;DHT22;40423;53.176;6.002;2023-01-13T05:53:05;8.80;99.90
54518;DHT22;40423;53.176;6.002;2023-01-13T05:55:31;8.80;99.90
54518;DHT22;40423;53.176;6.002;2023-01-13T05:57:57;8.80;99.90
54518;DHT22;40423;53.176;6.002;2023-01-13T06:00:22;8.80;99.90
54518;DHT22;40423;53.176;6.002;2023-01-13T06:02:48;8.80;99.90
54518;DHT22;40423;53.176;6.002;2023-01-13T06:05:14;8.70;99.90
54518;DHT22;40423;53.176;6.002;2023-01-13T06:07:40;8.70;99.90
54518;DHT22;40423;53.176;6.002;2023-01-13T06:10:06;8.70;99.90
54518;DHT22;40423;53.176;6.002;2023-01-13T06:12:32;8.60;99.90
54518;DHT22;40423;53.176;6.002;2023-01-13T06:14:58;8.70;99.90
54518;DHT22;40423;53.176;6.002;2023-01-13T06:17:24;8.70;99.90
54518;DHT22;40423;53.176;6.002;2023-01-13T06:19:49;8.70;99.90
54518;DHT22;40423;53.176;6.002;2023-01-13T06:22:24;8.60;99.90
54518;DHT22;40423;53.176;6.002;2023-01-13T06:24:52;8.60;99.90
54518;DHT22;40423;53.176;6.002;2023-01-13T06:27:19;8.60;99.90
54518;DHT22;40423;53.176;6.002;2023-01-13T06:29:45;8.60;99.90
54518;DHT22;40423;53.176;6.002;2023-01-13T06:32:18;8.60;99.90
54518;DHT22;40423;53.176;6.002;2023-01-13T06:34:50;8.60;99.90
54518;DHT22;40423;53.176;6.002;2023-01-13T06:37:18;8.60;99.90
54518;DHT22;40423;53.176;6.002;2023-01-13T06:39:46;8.60;99.90
54518;DHT22;40423;53.176;6.002;2023-01-13T06:42:20;8.50;99.90
54518;DHT22;40423;53.176;6.002;2023-01-13T06:45:14;8.50;99.90
54518;DHT22;40423;53.176;6.002;2023-01-13T06:48:14;8.40;99.90
54518;DHT22;40423;53.176;6.002;2023-01-13T06:51:34;8.30;99.90
54518;DHT22;40423;53.176;6.002;2023-01-13T06:54:10;8.30;99.90
54518;DHT22;40423;53.176;6.002;2023-01-13T06:56:44;8.20;99.90
54518;DHT22;40423;53.176;6.002;2023-01-13T06:59:15;8.20;99.90
54518;DHT22;40423;53.176;6.002;2023-01-13T07:01:45;8.10;99.90
54518;DHT22;40423;53.176;6.002;2023-01-13T07:04:16;8.10;99.90
54518;DHT22;40423;53.176;6.002;2023-01-13T07:06:43;8.10;99.90
54518;DHT22;40423;53.176;6.002;2023-01-13T07:09:09;8.10;99.90
54518;DHT22;40423;53.176;6.002;2023-01-13T07:11:35;8.10;99.90
54518;DHT22;40423;53.176;6.002;2023-01-13T07:14:01;8.10;99.90
54518;DHT22;40423;53.176;6.002;2023-01-13T07:16:45;8.10;99.90
54518;DHT22;40423;53.176;6.002;2023-01-13T07:19:11;8.00;99.90
54518;DHT22;40423;53.176;6.002;2023-01-13T07:21:36;8.10;99.90
54518;DHT22;40423;53.176;6.002;2023-01-13T07:24:02;8.10;99.90
54518;DHT22;40423;53.176;6.002;2023-01-13T07:26:28;8.10;99.90
54518;DHT22;40423;53.176;6.002;2023-01-13T07:28:54;8.10;99.90
54518;DHT22;40423;53.176;6.002;2023-01-13T07:31:20;8.10;99.90
54518;DHT22;40423;53.176;6.002;2023-01-13T07:33:47;8.10;99.90
54518;DHT22;40423;53.176;6.002;2023-01-13T07:36:13;8.10;99.90
54518;DHT22;40423;53.176;6.002;2023-01-13T07:38:42;8.20;99.90
54518;DHT22;40423;53.176;6.002;2023-01-13T07:41:12;8.20;99.90
54518;DHT22;40423;53.176;6.002;2023-01-13T07:43:56;8.20;99.90
54518;DHT22;40423;53.176;6.002;2023-01-13T07:46:22;8.20;99.90
54518;DHT22;40423;53.176;6.002;2023-01-13T07:48:48;8.20;99.90
54518;DHT22;40423;53.176;6.002;2023-01-13T07:51:13;8.30;99.90
54518;DHT22;40423;53.176;6.002;2023-01-13T07:53:39;8.30;99.90
54518;DHT22;40423;53.176;6.002;2023-01-13T07:56:06;8.30;99.90
54518;DHT22;40423;53.176;6.002;2023-01-13T07:58:33;8.30;99.90
54518;DHT22;40423;53.176;6.002;2023-01-13T08:01:09;8.30;99.90
54518;DHT22;40423;53.176;6.002;2023-01-13T08:03:39;8.40;99.90
54518;DHT22;40423;53.176;6.002;2023-01-13T08:06:05;8.40;99.90
54518;DHT22;40423;53.176;6.002;2023-01-13T08:08:34;8.40;99.90
54518;DHT22;40423;53.176;6.002;2023-01-13T08:11:02;8.40;99.90
54518;DHT22;40423;53.176;6.002;2023-01-13T08:13:28;8.40;99.90
54518;DHT22;40423;53.176;6.002;2023-01-13T08:16:06;8.50;99.90
54518;DHT22;40423;53.176;6.002;2023-01-13T08:18:32;8.50;99.90
54518;DHT22;40423;53.176;6.002;2023-01-13T08:21:04;8.50;99.90
54518;DHT22;40423;53.176;6.002;2023-01-13T08:23:32;8.50;99.90
54518;DHT22;40423;53.176;6.002;2023-01-13T08:26:06;8.60;99.90
54518;DHT22;40423;53.176;6.002;2023-01-13T08:28:33;8.50;99.90
54518;DHT22;40423;53.176;6.002;2023-01-13T08:31:04;8.60;99.90
54518;DHT22;40423;53.176;6.002;2023-01-13T08:33:30;8.60;99.90
54518;DHT22;40423;53.176;6.002;2023-01-13T08:35:57;8.60;99.90
54518;DHT22;40423;53.176;6.002;2023-01-13T08:38:23;8.60;99.90
54518;DHT22;40423;53.176;6.002;2023-01-13T08:40:49;8.50;99.90
54518;DHT22;40423;53.176;6.002;2023-01-13T08:43:15;8.60;99.90
54518;DHT22;40423;53.176;6.002;2023-01-13T08:45:41;8.60;99.90
54518;DHT22;40423;53.176;6.002;2023-01-13T08:48:10;8.50;99.90
54518;DHT22;40423;53.176;6.002;2023-01-13T08:50:36;8.50;99.90
54518;DHT22;40423;53.176;6.002;2023-01-13T08:53:01;8.40;99.90
54518;DHT22;40423;53.176;6.002;2023-01-13T08:55:27;8.30;99.90
54518;DHT22;40423;53.176;6.002;2023-01-13T08:57:53;8.30;99.90
54518;DHT22;40423;53.176;6.002;2023-01-13T09:00:19;8.30;99.90
54518;DHT22;40423;53.176;6.002;2023-01-13T09:02:44;8.20;99.90
54518;DHT22;40423;53.176;6.002;2023-01-13T09:05:10;8.20;99.90
54518;DHT22;40423;53.176;6.002;2023-01-13T09:07:37;8.20;99.90
54518;DHT22;40423;53.176;6.002;2023-01-13T09:10:05;8.10;99.90
54518;DHT22;40423;53.176;6.002;2023-01-13T09:12:31;8.10;99.90
54518;DHT22;40423;53.176;6.002;2023-01-13T09:15:15;8.10;99.90
54518;DHT22;40423;53.176;6.002;2023-01-13T09:17:43;8.10;99.90
54518;DHT22;40423;53.176;6.002;2023-01-13T09:20:10;8.10;99.90
54518;DHT22;40423;53.176;6.002;2023-01-13T09:22:37;8.10;99.90
54518;DHT22;40423;53.176;6.002;2023-01-13T09:25:06;8.00;99.90
54518;DHT22;40423;53.176;6.002;2023-01-13T09:27:32;8.00;99.90
54518;DHT22;40423;53.176;6.002;2023-01-13T09:29:58;8.00;99.90
54518;DHT22;40423;53.176;6.002;2023-01-13T09:32:26;8.00;99.90
54518;DHT22;40423;53.176;6.002;2023-01-13T09:34:52;8.00;99.90
54518;DHT22;40423;53.176;6.002;2023-01-13T09:37:37;8.00;99.90
54518;DHT22;40423;53.176;6.002;2023-01-13T09:40:14;8.00;99.90
54518;DHT22;40423;53.176;6.002;2023-01-13T09:42:59;8.00;99.90
54518;DHT22;40423;53.176;6.002;2023-01-13T09:45:52;8.00;99.90
54518;DHT22;40423;53.176;6.002;2023-01-13T09:48:37;7.90;99.90
54518;DHT22;40423;53.176;6.002;2023-01-13T09:51:29;8.00;99.90
54518;DHT22;40423;53.176;6.002;2023-01-13T09:54:02;8.10;99.90
54518;DHT22;40423;53.176;6.002;2023-01-13T09:56:30;8.00;99.90
54518;DHT22;40423;53.176;6.002;2023-01-13T09:58:59;8.00;99.90
54518;DHT22;40423;53.176;6.002;2023-01-13T10:01:46;8.10;99.90
54518;DHT22;40423;53.176;6.002;2023-01-13T10:04:41;8.10;99.90
54518;DHT22;40423;53.176;6.002;2023-01-13T10:07:12;8.20;99.90
54518;DHT22;40423;53.176;6.002;2023-01-13T10:13:31;8.20;99.90
54518;DHT22;40423;53.176;6.002;2023-01-13T10:16:22;7.80;99.90
54518;DHT22;40423;53.176;6.002;2023-01-13T10:19:10;8.30;99.90
54518;DHT22;40423;53.176;6.002;2023-01-13T10:27:38;8.40;99.90
54518;DHT22;40423;53.176;6.002;2023-01-13T10:32:41;8.40;99.90
54518;DHT22;40423;53.176;6.002;2023-01-13T10:35:07;8.40;99.90
54518;DHT22;40423;53.176;6.002;2023-01-13T10:37:33;8.40;99.90
54518;DHT22;40423;53.176;6.002;2023-01-13T10:40:00;8.40;99.90
54518;DHT22;40423;53.176;6.002;2023-01-13T10:42:26;8.50;99.90
54518;DHT22;40423;53.176;6.002;2023-01-13T10:44:57;8.50;99.90
54518;DHT22;40423;53.176;6.002;2023-01-13T10:47:29;8.50;99.90
54518;DHT22;40423;53.176;6.002;2023-01-13T10:50:23;8.50;99.90
54518;DHT22;40423;53.176;6.002;2023-01-13T10:53:14;8.50;99.90
54518;DHT22;40423;53.176;6.002;2023-01-13T10:55:40;8.50;99.90
54518;DHT22;40423;53.176;6.002;2023-01-13T10:58:18;8.50;99.90
54518;DHT22;40423;53.176;6.002;2023-01-13T11:00:44;8.60;99.90
54518;DHT22;40423;53.176;6.002;2023-01-13T11:03:20;8.70;99.90
54518;DHT22;40423;53.176;6.002;2023-01-13T11:05:55;8.90;99.90
54518;DHT22;40423;53.176;6.002;2023-01-13T11:08:27;8.70;99.90
54518;DHT22;40423;53.176;6.002;2023-01-13T11:10:56;8.70;99.90
54518;DHT22;40423;53.176;6.002;2023-01-13T11:13:36;8.70;99.90
54518;DHT22;40423;53.176;6.002;2023-01-13T11:16:22;8.80;99.90
54518;DHT22;40423;53.176;6.002;2023-01-13T11:18:54;8.90;99.90
54518;DHT22;40423;53.176;6.002;2023-01-13T11:25:00;8.90;99.90
54518;DHT22;40423;53.176;6.002;2023-01-13T11:27:37;8.90;99.90
54518;DHT22;40423;53.176;6.002;2023-01-13T11:35:41;9.00;99.90
54518;DHT22;40423;53.176;6.002;2023-01-13T11:38:19;9.00;99.90
54518;DHT22;40423;53.176;6.002;2023-01-13T11:40:49;9.00;99.90
54518;DHT22;40423;53.176;6.002;2023-01-13T11:45:56;9.00;99.90
54518;DHT22;40423;53.176;6.002;2023-01-13T11:48:26;9.00;99.90
54518;DHT22;40423;53.176;6.002;2023-01-13T11:53:59;9.00;99.90
54518;DHT22;40423;53.176;6.002;2023-01-13T12:13:05;9.30;99.90
54518;DHT22;40423;53.176;6.002;2023-01-13T12:15:44;9.30;99.90
54518;DHT22;40423;53.176;6.002;2023-01-13T12:23:34;9.40;99.90
54518;DHT22;40423;53.176;6.002;2023-01-13T12:26:12;9.40;99.90
54518;DHT22;40423;53.176;6.002;2023-01-13T12:29:03;9.30;99.90
54518;DHT22;40423;53.176;6.002;2023-01-13T12:31:30;9.20;99.90
54518;DHT22;40423;53.176;6.002;2023-01-13T12:34:04;9.30;99.90
54518;DHT22;40423;53.176;6.002;2023-01-13T12:45:33;9.30;99.90
54518;DHT22;40423;53.176;6.002;2023-01-13T12:48:00;9.30;99.90
54518;DHT22;40423;53.176;6.002;2023-01-13T13:01:42;9.40;99.90
54518;DHT22;40423;53.176;6.002;2023-01-13T13:04:11;9.30;99.90
54518;DHT22;40423;53.176;6.002;2023-01-13T13:06:43;9.30;99.90
54518;DHT22;40423;53.176;6.002;2023-01-13T13:09:25;9.30;99.90
54518;DHT22;40423;53.176;6.002;2023-01-13T13:11:55;9.30;99.90
54518;DHT22;40423;53.176;6.002;2023-01-13T13:19:57;9.30;99.90
54518;DHT22;40423;53.176;6.002;2023-01-13T13:41:35;9.30;99.90
54518;DHT22;40423;53.176;6.002;2023-01-13T13:44:24;9.30;99.90
54518;DHT22;40423;53.176;6.002;2023-01-13T13:47:10;9.30;99.90
54518;DHT22;40423;53.176;6.002;2023-01-13T13:49:42;9.30;99.90
54518;DHT22;40423;53.176;6.002;2023-01-13T13:52:25;9.30;99.90
54518;DHT22;40423;53.176;6.002;2023-01-13T13:55:01;9.30;99.90
54518;DHT22;40423;53.176;6.002;2023-01-13T13:57:37;9.30;99.90
54518;DHT22;40423;53.176;6.002;2023-01-13T14:03:02;9.20;99.90
54518;DHT22;40423;53.176;6.002;2023-01-13T14:05:31;9.20;99.90
54518;DHT22;40423;53.176;6.002;2023-01-13T14:08:06;9.10;99.90
54518;DHT22;40423;53.176;6.002;2023-01-13T14:10:36;9.10;99.90
54518;DHT22;40423;53.176;6.002;2023-01-13T14:15:45;9.10;99.90
54518;DHT22;40423;53.176;6.002;2023-01-13T14:18:18;9.10;99.90
54518;DHT22;40423;53.176;6.002;2023-01-13T14:21:02;9.10;99.90
54518;DHT22;40423;53.176;6.002;2023-01-13T14:23:30;9.10;99.90
54518;DHT22;40423;53.176;6.002;2023-01-13T14:26:09;9.20;99.90
54518;DHT22;40423;53.176;6.002;2023-01-13T14:28:39;9.20;99.90
54518;DHT22;40423;53.176;6.002;2023-01-13T14:31:07;9.30;99.90
54518;DHT22;40423;53.176;6.002;2023-01-13T14:33:44;9.30;99.90
54518;DHT22;40423;53.176;6.002;2023-01-13T14:41:35;9.20;99.90
54518;DHT22;40423;53.176;6.002;2023-01-13T14:44:31;9.20;99.90
54518;DHT22;40423;53.176;6.002;2023-01-13T14:47:14;9.20;99.90
54518;DHT22;40423;53.176;6.002;2023-01-13T14:50:02;9.20;99.90
54518;DHT22;40423;53.176;6.002;2023-01-13T14:52:37;9.20;99.90
54518;DHT22;40423;53.176;6.002;2023-01-13T14:55:29;9.20;99.90
54518;DHT22;40423;53.176;6.002;2023-01-13T15:00:39;9.20;99.90
54518;DHT22;40423;53.176;6.002;2023-01-13T15:03:07;9.20;99.90
54518;DHT22;40423;53.176;6.002;2023-01-13T15:05:37;9.10;99.90
54518;DHT22;40423;53.176;6.002;2023-01-13T15:10:46;9.10;99.90
54518;DHT22;40423;53.176;6.002;2023-01-13T15:13:39;9.20;99.90
54518;DHT22;40423;53.176;6.002;2023-01-13T15:18:42;9.10;99.90
54518;DHT22;40423;53.176;6.002;2023-01-13T15:21:09;9.20;99.90
54518;DHT22;40423;53.176;6.002;2023-01-13T15:23:35;9.20;99.90
54518;DHT22;40423;53.176;6.002;2023-01-13T15:26:01;9.20;99.90
54518;DHT22;40423;53.176;6.002;2023-01-13T15:28:27;9.20;99.90
54518;DHT22;40423;53.176;6.002;2023-01-13T15:30:54;9.20;99.90
54518;DHT22;40423;53.176;6.002;2023-01-13T15:33:25;9.20;99.90
54518;DHT22;40423;53.176;6.002;2023-01-13T15:35:52;9.20;99.90
54518;DHT22;40423;53.176;6.002;2023-01-13T15:38:20;9.20;99.90
54518;DHT22;40423;53.176;6.002;2023-01-13T15:40:48;9.20;99.90
54518;DHT22;40423;53.176;6.002;2023-01-13T15:43:16;9.20;99.90
54518;DHT22;40423;53.176;6.002;2023-01-13T15:46:03;9.20;99.90
54518;DHT22;40423;53.176;6.002;2023-01-13T15:49:25;9.10;99.90
54518;DHT22;40423;53.176;6.002;2023-01-13T15:51:51;9.20;99.90
54518;DHT22;40423;53.176;6.002;2023-01-13T15:54:17;9.10;99.90
54518;DHT22;40423;53.176;6.002;2023-01-13T15:56:47;9.10;99.90
54518;DHT22;40423;53.176;6.002;2023-01-13T15:59:20;9.00;99.90
54518;DHT22;40423;53.176;6.002;2023-01-13T16:01:46;9.00;99.90
54518;DHT22;40423;53.176;6.002;2023-01-13T16:04:12;9.00;99.90
54518;DHT22;40423;53.176;6.002;2023-01-13T16:06:38;9.00;99.90
54518;DHT22;40423;53.176;6.002;2023-01-13T16:09:04;9.00;99.90
54518;DHT22;40423;53.176;6.002;2023-01-13T16:11:30;9.00;99.90
54518;DHT22;40423;53.176;6.002;2023-01-13T16:13:55;9.00;99.90
54518;DHT22;40423;53.176;6.002;2023-01-13T16:16:24;9.00;99.90
54518;DHT22;40423;53.176;6.002;2023-01-13T16:18:51;9.00;99.90
54518;DHT22;40423;53.176;6.002;2023-01-13T16:21:18;9.00;99.90
54518;DHT22;40423;53.176;6.002;2023-01-13T16:23:46;9.00;99.90
54518;DHT22;40423;53.176;6.002;2023-01-13T16:26:23;9.00;99.90
54518;DHT22;40423;53.176;6.002;2023-01-13T16:28:52;8.90;99.90
54518;DHT22;40423;53.176;6.002;2023-01-13T16:31:31;8.80;99.90
54518;DHT22;40423;53.176;6.002;2023-01-13T16:34:01;8.80;99.90
54518;DHT22;40423;53.176;6.002;2023-01-13T16:36:29;8.70;99.90
54518;DHT22;40423;53.176;6.002;2023-01-13T16:38:55;8.70;99.90
54518;DHT22;40423;53.176;6.002;2023-01-13T16:41:21;8.60;99.90
54518;DHT22;40423;53.176;6.002;2023-01-13T16:43:49;8.50;99.90
54518;DHT22;40423;53.176;6.002;2023-01-13T16:48:47;8.40;99.90
54518;DHT22;40423;53.176;6.002;2023-01-13T16:51:14;8.30;99.90
54518;DHT22;40423;53.176;6.002;2023-01-13T16:53:40;8.30;99.90
54518;DHT22;40423;53.176;6.002;2023-01-13T16:58:49;8.40;99.90
54518;DHT22;40423;53.176;6.002;2023-01-13T17:01:21;8.50;99.90
54518;DHT22;40423;53.176;6.002;2023-01-13T17:03:48;8.50;99.90
54518;DHT22;40423;53.176;6.002;2023-01-13T17:06:15;8.50;99.90
54518;DHT22;40423;53.176;6.002;2023-01-13T17:08:41;8.50;99.90
54518;DHT22;40423;53.176;6.002;2023-01-13T17:11:07;8.50;99.90
54518;DHT22;40423;53.176;6.002;2023-01-13T17:13:33;8.50;99.90
54518;DHT22;40423;53.176;6.002;2023-01-13T17:15:58;8.50;99.90
54518;DHT22;40423;53.176;6.002;2023-01-13T17:18:24;8.50;99.90
54518;DHT22;40423;53.176;6.002;2023-01-13T17:20:50;8.50;99.90
54518;DHT22;40423;53.176;6.002;2023-01-13T17:23:15;8.50;99.90
54518;DHT22;40423;53.176;6.002;2023-01-13T17:25:41;8.50;99.90
54518;DHT22;40423;53.176;6.002;2023-01-13T17:28:07;8.50;99.90
54518;DHT22;40423;53.176;6.002;2023-01-13T17:30:32;8.50;99.90
54518;DHT22;40423;53.176;6.002;2023-01-13T17:32:58;8.50;99.90
54518;DHT22;40423;53.176;6.002;2023-01-13T17:35:24;8.50;99.90
54518;DHT22;40423;53.176;6.002;2023-01-13T17:37:53;8.50;99.90
54518;DHT22;40423;53.176;6.002;2023-01-13T17:40:19;8.50;99.90
54518;DHT22;40423;53.176;6.002;2023-01-13T17:42:45;8.50;99.90
54518;DHT22;40423;53.176;6.002;2023-01-13T17:45:10;8.50;99.90
54518;DHT22;40423;53.176;6.002;2023-01-13T17:47:37;8.50;99.90
54518;DHT22;40423;53.176;6.002;2023-01-13T17:50:03;8.50;99.90
54518;DHT22;40423;53.176;6.002;2023-01-13T17:52:30;8.50;99.90
54518;DHT22;40423;53.176;6.002;2023-01-13T17:54:55;8.50;99.90
54518;DHT22;40423;53.176;6.002;2023-01-13T17:57:21;8.50;99.90
54518;DHT22;40423;53.176;6.002;2023-01-13T17:59:50;8.50;99.90
54518;DHT22;40423;53.176;6.002;2023-01-13T18:02:15;8.60;99.90
54518;DHT22;40423;53.176;6.002;2023-01-13T18:04:41;8.60;99.90
54518;DHT22;40423;53.176;6.002;2023-01-13T18:07:07;8.60;99.90
54518;DHT22;40423;53.176;6.002;2023-01-13T18:09:33;8.70;99.90
54518;DHT22;40423;53.176;6.002;2023-01-13T18:11:59;8.70;99.90
54518;DHT22;40423;53.176;6.002;2023-01-13T18:14:25;8.70;99.90
54518;DHT22;40423;53.176;6.002;2023-01-13T18:16:51;8.70;99.90
54518;DHT22;40423;53.176;6.002;2023-01-13T18:19:19;8.70;99.90
54518;DHT22;40423;53.176;6.002;2023-01-13T18:22:04;8.70;99.90
54518;DHT22;40423;53.176;6.002;2023-01-13T18:24:48;8.70;99.90
54518;DHT22;40423;53.176;6.002;2023-01-13T18:27:35;8.70;99.90
54518;DHT22;40423;53.176;6.002;2023-01-13T18:30:04;8.70;99.90
54518;DHT22;40423;53.176;6.002;2023-01-13T18:32:31;8.70;99.90
54518;DHT22;40423;53.176;6.002;2023-01-13T18:34:58;8.70;99.90
54518;DHT22;40423;53.176;6.002;2023-01-13T18:37:25;8.70;99.90
54518;DHT22;40423;53.176;6.002;2023-01-13T18:39:51;8.70;99.90
54518;DHT22;40423;53.176;6.002;2023-01-13T18:42:19;8.60;99.90
54518;DHT22;40423;53.176;6.002;2023-01-13T18:45:04;8.60;99.90
54518;DHT22;40423;53.176;6.002;2023-01-13T18:47:30;8.60;99.90
54518;DHT22;40423;53.176;6.002;2023-01-13T18:49:58;8.60;99.90
54518;DHT22;40423;53.176;6.002;2023-01-13T18:52:24;8.60;99.90